sensor_id;sensor_type;location;lat;lon;timestamp;temperature;humidity
38854;DHT22;24606;51.992;4.198;2022-11-02T00:03:56;11.60;99.90
38854;DHT22;24606;51.992;4.198;2022-11-02T00:08:59;13.10;99.90
38854;DHT22;24606;51.992;4.198;2022-11-02T00:14:01;13.70;99.90
38854;DHT22;24606;51.992;4.198;2022-11-02T00:19:03;13.80;99.90
38854;DHT22;24606;51.992;4.198;2022-11-02T00:24:09;14.40;99.90
38854;DHT22;24606;51.992;4.198;2022-11-02T00:29:11;14.10;99.90
38854;DHT22;24606;51.992;4.198;2022-11-02T00:34:13;14.40;99.90
38854;DHT22;24606;51.992;4.198;2022-11-02T00:39:16;13.50;99.90
38854;DHT22;24606;51.992;4.198;2022-11-02T00:44:18;14.10;99.90
38854;DHT22;24606;51.992;4.198;2022-11-02T00:49:20;14.30;99.90
38854;DHT22;24606;51.992;4.198;2022-11-02T00:54:23;14.70;99.90
38854;DHT22;24606;51.992;4.198;2022-11-02T00:59:25;14.90;97.30
38854;DHT22;24606;51.992;4.198;2022-11-02T01:04:27;14.40;99.90
38854;DHT22;24606;51.992;4.198;2022-11-02T01:09:31;14.90;99.90
38854;DHT22;24606;51.992;4.198;2022-11-02T01:14:34;14.90;99.90
38854;DHT22;24606;51.992;4.198;2022-11-02T01:19:35;14.50;99.90
38854;DHT22;24606;51.992;4.198;2022-11-02T01:24:39;15.00;99.80
38854;DHT22;24606;51.992;4.198;2022-11-02T01:29:41;14.00;99.90
38854;DHT22;24606;51.992;4.198;2022-11-02T01:34:42;15.50;99.90
38854;DHT22;24606;51.992;4.198;2022-11-02T01:39:46;14.20;99.90
38854;DHT22;24606;51.992;4.198;2022-11-02T01:44:48;14.40;99.90
38854;DHT22;24606;51.992;4.198;2022-11-02T01:49:52;14.20;99.90
38854;DHT22;24606;51.992;4.198;2022-11-02T01:54:59;13.50;99.90
38854;DHT22;24606;51.992;4.198;2022-11-02T02:00:04;14.30;99.90
38854;DHT22;24606;51.992;4.198;2022-11-02T02:05:08;15.80;98.60
38854;DHT22;24606;51.992;4.198;2022-11-02T02:10:12;14.40;99.90
38854;DHT22;24606;51.992;4.198;2022-11-02T02:15:15;14.00;99.90
38854;DHT22;24606;51.992;4.198;2022-11-02T02:20:25;13.50;99.90
38854;DHT22;24606;51.992;4.198;2022-11-02T02:31:14;14.40;99.90
38854;DHT22;24606;51.992;4.198;2022-11-02T02:36:22;14.40;99.90
38854;DHT22;24606;51.992;4.198;2022-11-02T02:41:33;13.60;99.90
38854;DHT22;24606;51.992;4.198;2022-11-02T02:46:42;14.40;99.90
38854;DHT22;24606;51.992;4.198;2022-11-02T02:51:46;13.10;99.90
38854;DHT22;24606;51.992;4.198;2022-11-02T02:56:50;13.50;99.90
38854;DHT22;24606;51.992;4.198;2022-11-02T03:01:54;14.20;99.90
38854;DHT22;24606;51.992;4.198;2022-11-02T03:07:00;13.30;99.90
38854;DHT22;24606;51.992;4.198;2022-11-02T03:12:10;13.90;99.90
38854;DHT22;24606;51.992;4.198;2022-11-02T03:17:17;13.60;99.90
38854;DHT22;24606;51.992;4.198;2022-11-02T03:22:25;13.20;99.90
38854;DHT22;24606;51.992;4.198;2022-11-02T03:27:37;14.20;99.90
38854;DHT22;24606;51.992;4.198;2022-11-02T03:32:48;13.80;99.90
38854;DHT22;24606;51.992;4.198;2022-11-02T03:37:57;13.90;99.90
38854;DHT22;24606;51.992;4.198;2022-11-02T03:43:03;13.30;99.90
38854;DHT22;24606;51.992;4.198;2022-11-02T03:48:09;13.10;99.90
38854;DHT22;24606;51.992;4.198;2022-11-02T03:53:16;13.40;99.90
38854;DHT22;24606;51.992;4.198;2022-11-02T03:58:19;13.60;99.90
38854;DHT22;24606;51.992;4.198;2022-11-02T04:03:23;13.30;99.90
38854;DHT22;24606;51.992;4.198;2022-11-02T04:08:34;13.70;99.90
38854;DHT22;24606;51.992;4.198;2022-11-02T04:13:36;12.90;99.90
38854;DHT22;24606;51.992;4.198;2022-11-02T04:18:57;13.10;99.90
38854;DHT22;24606;51.992;4.198;2022-11-02T04:24:17;13.20;99.90
38854;DHT22;24606;51.992;4.198;2022-11-02T04:29:36;13.00;99.90
38854;DHT22;24606;51.992;4.198;2022-11-02T04:34:40;13.30;99.90
38854;DHT22;24606;51.992;4.198;2022-11-02T04:39:42;12.70;99.90
38854;DHT22;24606;51.992;4.198;2022-11-02T04:44:43;13.20;99.90
38854;DHT22;24606;51.992;4.198;2022-11-02T04:49:47;13.40;99.90
38854;DHT22;24606;51.992;4.198;2022-11-02T04:54:49;13.30;99.00
38854;DHT22;24606;51.992;4.198;2022-11-02T04:59:50;13.20;99.90
38854;DHT22;24606;51.992;4.198;2022-11-02T05:04:54;13.30;99.90
38854;DHT22;24606;51.992;4.198;2022-11-02T05:09:56;13.00;99.90
38854;DHT22;24606;51.992;4.198;2022-11-02T05:14:57;12.90;99.30
38854;DHT22;24606;51.992;4.198;2022-11-02T05:20:01;12.90;99.70
38854;DHT22;24606;51.992;4.198;2022-11-02T05:25:04;12.90;99.90
38854;DHT22;24606;51.992;4.198;2022-11-02T05:30:07;13.40;98.60
38854;DHT22;24606;51.992;4.198;2022-11-02T05:35:10;13.00;99.90
38854;DHT22;24606;51.992;4.198;2022-11-02T05:40:12;13.00;99.90
38854;DHT22;24606;51.992;4.198;2022-11-02T05:45:14;13.30;99.20
38854;DHT22;24606;51.992;4.198;2022-11-02T05:50:17;13.00;98.50
38854;DHT22;24606;51.992;4.198;2022-11-02T05:55:19;13.30;99.90
38854;DHT22;24606;51.992;4.198;2022-11-02T06:00:22;13.40;94.90
38854;DHT22;24606;51.992;4.198;2022-11-02T06:05:25;13.30;97.80
38854;DHT22;24606;51.992;4.198;2022-11-02T06:10:29;12.90;98.80
38854;DHT22;24606;51.992;4.198;2022-11-02T06:15:31;13.00;95.20
38854;DHT22;24606;51.992;4.198;2022-11-02T06:20:34;13.50;94.20
38854;DHT22;24606;51.992;4.198;2022-11-02T06:25:36;13.20;98.70
38854;DHT22;24606;51.992;4.198;2022-11-02T06:30:39;13.10;93.20
38854;DHT22;24606;51.992;4.198;2022-11-02T06:35:44;12.90;95.30
38854;DHT22;24606;51.992;4.198;2022-11-02T06:40:53;13.20;97.80
38854;DHT22;24606;51.992;4.198;2022-11-02T06:45:56;13.00;94.10
38854;DHT22;24606;51.992;4.198;2022-11-02T06:50:59;13.00;97.50
38854;DHT22;24606;51.992;4.198;2022-11-02T06:56:01;13.90;94.00
38854;DHT22;24606;51.992;4.198;2022-11-02T07:01:04;13.40;94.30
38854;DHT22;24606;51.992;4.198;2022-11-02T07:15:28;13.60;97.50
38854;DHT22;24606;51.992;4.198;2022-11-02T07:20:29;13.70;92.60
38854;DHT22;24606;51.992;4.198;2022-11-02T07:25:32;14.10;93.30
38854;DHT22;24606;51.992;4.198;2022-11-02T07:30:35;13.40;97.80
38854;DHT22;24606;51.992;4.198;2022-11-02T07:35:37;14.10;94.40
38854;DHT22;24606;51.992;4.198;2022-11-02T07:40:39;14.00;91.10
38854;DHT22;24606;51.992;4.198;2022-11-02T07:45:42;13.90;91.30
38854;DHT22;24606;51.992;4.198;2022-11-02T07:50:44;13.80;91.70
38854;DHT22;24606;51.992;4.198;2022-11-02T07:55:46;13.70;92.10
38854;DHT22;24606;51.992;4.198;2022-11-02T08:00:49;13.30;90.90
38854;DHT22;24606;51.992;4.198;2022-11-02T08:05:51;13.50;91.40
38854;DHT22;24606;51.992;4.198;2022-11-02T08:10:53;14.10;93.40
38854;DHT22;24606;51.992;4.198;2022-11-02T08:15:56;14.00;97.70
38854;DHT22;24606;51.992;4.198;2022-11-02T08:20:58;13.70;93.40
38854;DHT22;24606;51.992;4.198;2022-11-02T08:26:01;14.10;87.70
38854;DHT22;24606;51.992;4.198;2022-11-02T08:31:04;14.00;89.60
38854;DHT22;24606;51.992;4.198;2022-11-02T08:36:07;14.50;94.40
38854;DHT22;24606;51.992;4.198;2022-11-02T08:41:10;13.90;90.10
38854;DHT22;24606;51.992;4.198;2022-11-02T08:46:13;14.20;94.40
38854;DHT22;24606;51.992;4.198;2022-11-02T08:51:15;14.20;91.00
38854;DHT22;24606;51.992;4.198;2022-11-02T08:56:17;14.30;89.40
38854;DHT22;24606;51.992;4.198;2022-11-02T09:01:20;14.10;90.30
38854;DHT22;24606;51.992;4.198;2022-11-02T09:06:22;14.30;85.70
38854;DHT22;24606;51.992;4.198;2022-11-02T09:11:24;14.40;94.90
38854;DHT22;24606;51.992;4.198;2022-11-02T09:16:27;14.60;95.20
38854;DHT22;24606;51.992;4.198;2022-11-02T09:21:29;14.80;89.40
38854;DHT22;24606;51.992;4.198;2022-11-02T09:26:30;14.50;85.20
38854;DHT22;24606;51.992;4.198;2022-11-02T09:31:34;14.90;93.60
38854;DHT22;24606;51.992;4.198;2022-11-02T09:36:35;14.30;89.90
38854;DHT22;24606;51.992;4.198;2022-11-02T09:41:41;14.60;90.60
38854;DHT22;24606;51.992;4.198;2022-11-02T09:46:46;14.20;91.70
38854;DHT22;24606;51.992;4.198;2022-11-02T09:51:49;14.20;92.90
38854;DHT22;24606;51.992;4.198;2022-11-02T09:56:55;14.40;91.40
38854;DHT22;24606;51.992;4.198;2022-11-02T10:02:08;14.40;92.50
38854;DHT22;24606;51.992;4.198;2022-11-02T10:07:21;14.90;89.40
38854;DHT22;24606;51.992;4.198;2022-11-02T10:12:33;15.30;94.40
38854;DHT22;24606;51.992;4.198;2022-11-02T10:17:39;14.70;94.70
38854;DHT22;24606;51.992;4.198;2022-11-02T10:22:42;14.90;89.60
38854;DHT22;24606;51.992;4.198;2022-11-02T10:27:47;15.30;93.70
38854;DHT22;24606;51.992;4.198;2022-11-02T10:32:53;15.30;91.70
38854;DHT22;24606;51.992;4.198;2022-11-02T10:38:06;15.20;83.50
38854;DHT22;24606;51.992;4.198;2022-11-02T10:43:20;15.00;77.00
38854;DHT22;24606;51.992;4.198;2022-11-02T10:48:32;14.70;91.10
38854;DHT22;24606;51.992;4.198;2022-11-02T10:53:40;14.90;83.40
38854;DHT22;24606;51.992;4.198;2022-11-02T10:58:49;15.40;92.00
38854;DHT22;24606;51.992;4.198;2022-11-02T11:03:55;15.90;91.00
38854;DHT22;24606;51.992;4.198;2022-11-02T11:09:03;16.60;83.00
38854;DHT22;24606;51.992;4.198;2022-11-02T11:14:14;16.10;90.40
38854;DHT22;24606;51.992;4.198;2022-11-02T11:19:23;14.90;94.80
38854;DHT22;24606;51.992;4.198;2022-11-02T11:24:30;15.60;91.00
38854;DHT22;24606;51.992;4.198;2022-11-02T11:29:34;15.70;93.30
38854;DHT22;24606;51.992;4.198;2022-11-02T11:34:38;15.80;91.70
38854;DHT22;24606;51.992;4.198;2022-11-02T11:39:41;16.20;89.00
38854;DHT22;24606;51.992;4.198;2022-11-02T11:44:45;16.00;85.60
38854;DHT22;24606;51.992;4.198;2022-11-02T11:49:51;15.90;92.50
38854;DHT22;24606;51.992;4.198;2022-11-02T11:54:55;16.00;92.20
38854;DHT22;24606;51.992;4.198;2022-11-02T11:59:58;16.70;91.50
38854;DHT22;24606;51.992;4.198;2022-11-02T12:05:12;16.40;89.40
38854;DHT22;24606;51.992;4.198;2022-11-02T12:10:19;17.20;87.90
38854;DHT22;24606;51.992;4.198;2022-11-02T12:15:35;16.60;86.50
38854;DHT22;24606;51.992;4.198;2022-11-02T12:20:52;16.60;92.10
38854;DHT22;24606;51.992;4.198;2022-11-02T12:26:07;17.40;89.50
38854;DHT22;24606;51.992;4.198;2022-11-02T12:31:21;17.50;87.00
38854;DHT22;24606;51.992;4.198;2022-11-02T12:36:36;17.20;90.50
38854;DHT22;24606;51.992;4.198;2022-11-02T12:41:54;17.70;84.90
38854;DHT22;24606;51.992;4.198;2022-11-02T12:47:03;16.70;90.50
38854;DHT22;24606;51.992;4.198;2022-11-02T12:52:18;17.30;90.30
38854;DHT22;24606;51.992;4.198;2022-11-02T12:57:26;17.60;81.50
38854;DHT22;24606;51.992;4.198;2022-11-02T13:02:31;17.70;80.60
38854;DHT22;24606;51.992;4.198;2022-11-02T13:07:41;17.40;86.30
38854;DHT22;24606;51.992;4.198;2022-11-02T13:12:47;17.30;84.40
38854;DHT22;24606;51.992;4.198;2022-11-02T13:17:52;17.90;87.40
38854;DHT22;24606;51.992;4.198;2022-11-02T13:23:02;18.80;82.50
38854;DHT22;24606;51.992;4.198;2022-11-02T13:28:11;18.90;82.40
38854;DHT22;24606;51.992;4.198;2022-11-02T13:33:17;19.10;81.30
38854;DHT22;24606;51.992;4.198;2022-11-02T13:38:28;18.00;88.60
38854;DHT22;24606;51.992;4.198;2022-11-02T13:43:46;19.00;83.90
38854;DHT22;24606;51.992;4.198;2022-11-02T13:48:56;18.30;86.50
38854;DHT22;24606;51.992;4.198;2022-11-02T13:54:03;18.90;86.00
38854;DHT22;24606;51.992;4.198;2022-11-02T13:59:15;19.00;79.90
38854;DHT22;24606;51.992;4.198;2022-11-02T14:04:19;18.50;89.00
38854;DHT22;24606;51.992;4.198;2022-11-02T14:09:27;19.20;83.00
38854;DHT22;24606;51.992;4.198;2022-11-02T14:14:30;19.10;75.20
38854;DHT22;24606;51.992;4.198;2022-11-02T14:19:51;19.50;81.20
38854;DHT22;24606;51.992;4.198;2022-11-02T14:25:13;19.30;79.60
38854;DHT22;24606;51.992;4.198;2022-11-02T14:30:40;18.90;85.50
38854;DHT22;24606;51.992;4.198;2022-11-02T14:35:51;19.30;82.30
38854;DHT22;24606;51.992;4.198;2022-11-02T14:41:03;19.10;83.60
38854;DHT22;24606;51.992;4.198;2022-11-02T14:46:17;18.70;84.00
38854;DHT22;24606;51.992;4.198;2022-11-02T14:51:25;19.70;80.70
38854;DHT22;24606;51.992;4.198;2022-11-02T14:56:48;18.90;84.30
38854;DHT22;24606;51.992;4.198;2022-11-02T15:01:54;19.10;83.40
38854;DHT22;24606;51.992;4.198;2022-11-02T15:06:58;19.50;83.00
38854;DHT22;24606;51.992;4.198;2022-11-02T15:12:22;19.80;78.60
38854;DHT22;24606;51.992;4.198;2022-11-02T15:23:20;19.70;81.90
38854;DHT22;24606;51.992;4.198;2022-11-02T15:28:27;19.50;82.50
38854;DHT22;24606;51.992;4.198;2022-11-02T15:33:35;19.30;84.90
38854;DHT22;24606;51.992;4.198;2022-11-02T15:38:38;20.10;79.00
38854;DHT22;24606;51.992;4.198;2022-11-02T15:43:51;20.00;79.30
38854;DHT22;24606;51.992;4.198;2022-11-02T15:48:59;20.00;78.80
38854;DHT22;24606;51.992;4.198;2022-11-02T15:54:17;20.20;78.50
38854;DHT22;24606;51.992;4.198;2022-11-02T15:59:52;20.40;77.60
38854;DHT22;24606;51.992;4.198;2022-11-02T16:05:00;20.30;73.10
38854;DHT22;24606;51.992;4.198;2022-11-02T16:10:20;20.20;76.60
38854;DHT22;24606;51.992;4.198;2022-11-02T16:15:25;20.20;76.60
38854;DHT22;24606;51.992;4.198;2022-11-02T16:20:29;20.00;79.30
38854;DHT22;24606;51.992;4.198;2022-11-02T16:25:34;20.20;75.60
38854;DHT22;24606;51.992;4.198;2022-11-02T16:30:38;20.30;78.30
38854;DHT22;24606;51.992;4.198;2022-11-02T16:35:39;20.50;77.30
38854;DHT22;24606;51.992;4.198;2022-11-02T16:40:43;20.50;77.20
38854;DHT22;24606;51.992;4.198;2022-11-02T16:45:48;20.40;78.20
38854;DHT22;24606;51.992;4.198;2022-11-02T16:51:05;19.90;80.60
38854;DHT22;24606;51.992;4.198;2022-11-02T16:56:23;19.00;82.40
38854;DHT22;24606;51.992;4.198;2022-11-02T17:01:34;18.90;84.30
38854;DHT22;24606;51.992;4.198;2022-11-02T17:06:39;19.30;84.10
38854;DHT22;24606;51.992;4.198;2022-11-02T17:11:41;19.40;83.60
38854;DHT22;24606;51.992;4.198;2022-11-02T17:16:58;19.30;83.80
38854;DHT22;24606;51.992;4.198;2022-11-02T17:22:08;19.30;83.30
38854;DHT22;24606;51.992;4.198;2022-11-02T17:27:22;19.40;73.70
38854;DHT22;24606;51.992;4.198;2022-11-02T17:32:26;18.90;73.20
38854;DHT22;24606;51.992;4.198;2022-11-02T17:37:29;18.80;86.00
38854;DHT22;24606;51.992;4.198;2022-11-02T17:42:32;19.00;85.00
38854;DHT22;24606;51.992;4.198;2022-11-02T17:47:53;19.00;83.20
38854;DHT22;24606;51.992;4.198;2022-11-02T17:52:56;18.90;84.40
38854;DHT22;24606;51.992;4.198;2022-11-02T17:57:59;18.50;83.70
38854;DHT22;24606;51.992;4.198;2022-11-02T18:03:02;18.70;75.10
38854;DHT22;24606;51.992;4.198;2022-11-02T18:08:05;18.70;83.50
38854;DHT22;24606;51.992;4.198;2022-11-02T18:13:11;18.80;80.50
38854;DHT22;24606;51.992;4.198;2022-11-02T18:18:14;18.50;85.80
38854;DHT22;24606;51.992;4.198;2022-11-02T18:23:16;18.50;86.50
38854;DHT22;24606;51.992;4.198;2022-11-02T18:28:19;18.60;80.10
38854;DHT22;24606;51.992;4.198;2022-11-02T18:33:22;18.60;85.60
38854;DHT22;24606;51.992;4.198;2022-11-02T18:38:24;18.40;80.60
38854;DHT22;24606;51.992;4.198;2022-11-02T18:43:26;18.30;84.90
38854;DHT22;24606;51.992;4.198;2022-11-02T18:48:29;18.10;87.30
38854;DHT22;24606;51.992;4.198;2022-11-02T18:53:31;19.10;83.20
38854;DHT22;24606;51.992;4.198;2022-11-02T18:58:33;18.60;71.20
38854;DHT22;24606;51.992;4.198;2022-11-02T19:03:37;18.10;88.90
38854;DHT22;24606;51.992;4.198;2022-11-02T19:08:39;18.30;83.20
38854;DHT22;24606;51.992;4.198;2022-11-02T19:13:59;17.90;82.00
38854;DHT22;24606;51.992;4.198;2022-11-02T19:19:02;18.10;89.00
38854;DHT22;24606;51.992;4.198;2022-11-02T19:24:05;17.50;89.80
38854;DHT22;24606;51.992;4.198;2022-11-02T19:29:07;17.20;75.90
38854;DHT22;24606;51.992;4.198;2022-11-02T19:34:11;18.30;86.00
38854;DHT22;24606;51.992;4.198;2022-11-02T19:39:13;18.00;86.70
38854;DHT22;24606;51.992;4.198;2022-11-02T19:44:15;18.10;84.10
38854;DHT22;24606;51.992;4.198;2022-11-02T19:49:18;18.40;83.50
38854;DHT22;24606;51.992;4.198;2022-11-02T19:54:20;18.40;86.90
38854;DHT22;24606;51.992;4.198;2022-11-02T19:59:22;18.10;89.20
38854;DHT22;24606;51.992;4.198;2022-11-02T20:04:25;18.20;77.30
38854;DHT22;24606;51.992;4.198;2022-11-02T20:09:27;17.80;88.40
38854;DHT22;24606;51.992;4.198;2022-11-02T20:14:30;18.30;83.40
38854;DHT22;24606;51.992;4.198;2022-11-02T20:19:35;18.50;86.70
38854;DHT22;24606;51.992;4.198;2022-11-02T20:24:37;18.80;84.10
38854;DHT22;24606;51.992;4.198;2022-11-02T20:29:39;19.10;81.10
38854;DHT22;24606;51.992;4.198;2022-11-02T20:34:42;19.10;81.40
38854;DHT22;24606;51.992;4.198;2022-11-02T20:39:44;19.00;83.80
38854;DHT22;24606;51.992;4.198;2022-11-02T20:44:47;18.90;82.70
38854;DHT22;24606;51.992;4.198;2022-11-02T20:49:50;19.20;82.20
38854;DHT22;24606;51.992;4.198;2022-11-02T20:54:52;19.30;73.30
38854;DHT22;24606;51.992;4.198;2022-11-02T20:59:54;19.30;81.30
38854;DHT22;24606;51.992;4.198;2022-11-02T21:04:57;19.10;79.60
38854;DHT22;24606;51.992;4.198;2022-11-02T21:09:59;18.80;83.00
38854;DHT22;24606;51.992;4.198;2022-11-02T21:15:02;18.30;87.00
38854;DHT22;24606;51.992;4.198;2022-11-02T21:20:07;19.10;78.70
38854;DHT22;24606;51.992;4.198;2022-11-02T21:25:09;19.10;82.50
38854;DHT22;24606;51.992;4.198;2022-11-02T21:30:12;19.00;78.20
38854;DHT22;24606;51.992;4.198;2022-11-02T21:35:16;19.30;81.10
38854;DHT22;24606;51.992;4.198;2022-11-02T21:40:18;19.00;78.60
38854;DHT22;24606;51.992;4.198;2022-11-02T21:45:20;18.00;90.00
38854;DHT22;24606;51.992;4.198;2022-11-02T21:50:24;18.90;82.80
38854;DHT22;24606;51.992;4.198;2022-11-02T21:55:26;19.30;81.80
38854;DHT22;24606;51.992;4.198;2022-11-02T22:00:28;19.40;80.90
38854;DHT22;24606;51.992;4.198;2022-11-02T22:05:51;19.10;81.40
38854;DHT22;24606;51.992;4.198;2022-11-02T22:10:56;18.80;80.90
38854;DHT22;24606;51.992;4.198;2022-11-02T22:16:09;18.30;85.50
38854;DHT22;24606;51.992;4.198;2022-11-02T22:21:12;18.30;86.40
38854;DHT22;24606;51.992;4.198;2022-11-02T22:26:16;18.60;84.40
38854;DHT22;24606;51.992;4.198;2022-11-02T22:31:20;18.60;84.80
38854;DHT22;24606;51.992;4.198;2022-11-02T22:36:24;18.30;86.50
38854;DHT22;24606;51.992;4.198;2022-11-02T22:41:28;18.30;86.00
38854;DHT22;24606;51.992;4.198;2022-11-02T22:46:32;18.30;84.80
38854;DHT22;24606;51.992;4.198;2022-11-02T22:51:39;18.50;80.70
38854;DHT22;24606;51.992;4.198;2022-11-02T22:56:41;18.40;86.90
38854;DHT22;24606;51.992;4.198;2022-11-02T23:01:43;18.80;83.20
38854;DHT22;24606;51.992;4.198;2022-11-02T23:06:47;18.40;83.80
38854;DHT22;24606;51.992;4.198;2022-11-02T23:11:49;18.50;81.30
38854;DHT22;24606;51.992;4.198;2022-11-02T23:16:51;18.50;82.90
38854;DHT22;24606;51.992;4.198;2022-11-02T23:21:56;18.30;85.10
38854;DHT22;24606;51.992;4.198;2022-11-02T23:27:16;18.80;80.10
38854;DHT22;24606;51.992;4.198;2022-11-02T23:32:18;18.20;84.50
38854;DHT22;24606;51.992;4.198;2022-11-02T23:37:30;18.90;82.50
38854;DHT22;24606;51.992;4.198;2022-11-02T23:42:32;18.80;83.00
38854;DHT22;24606;51.992;4.198;2022-11-02T23:47:34;19.10;80.90
38854;DHT22;24606;51.992;4.198;2022-11-02T23:52:55;19.00;81.70
38854;DHT22;24606;51.992;4.198;2022-11-02T23:58:15;18.70;83.00
